createdAt,value
2022-10-17T00:01:59.616Z,57.30
2022-10-17T00:04:27.086Z,57.30
2022-10-17T00:06:55.061Z,57.20
2022-10-17T00:09:21.866Z,57.20
2022-10-17T00:11:48.627Z,57.10
2022-10-17T00:14:15.515Z,57.10
2022-10-17T00:16:42.789Z,57.10
2022-10-17T00:19:09.543Z,57.10
2022-10-17T00:21:36.859Z,57.00
2022-10-17T00:24:04.225Z,56.90
2022-10-17T00:26:31.102Z,57.00
2022-10-17T00:28:58.435Z,57.00
2022-10-17T00:31:25.716Z,57.00
2022-10-17T00:33:53.448Z,57.00
2022-10-17T00:36:23.079Z,57.00
2022-10-17T00:38:53.110Z,57.00
2022-10-17T00:41:22.458Z,56.90
2022-10-17T00:43:58.034Z,56.90
2022-10-17T00:46:28.436Z,56.80
2022-10-17T00:48:56.892Z,56.80
2022-10-17T00:51:32.967Z,56.70
2022-10-17T00:54:00.765Z,56.70
2022-10-17T00:56:27.895Z,57.30
2022-10-17T00:58:55.508Z,56.60
2022-10-17T01:01:22.437Z,56.60
2022-10-17T01:03:49.337Z,56.50
2022-10-17T01:06:16.275Z,56.50
2022-10-17T01:08:43.223Z,56.40
2022-10-17T01:11:12.763Z,56.40
2022-10-17T01:13:46.777Z,56.30
2022-10-17T01:16:37.349Z,56.30
2022-10-17T01:19:27.076Z,56.30
2022-10-17T01:22:08.296Z,56.20
2022-10-17T01:24:49.227Z,56.20
2022-10-17T01:27:42.456Z,56.10
2022-10-17T01:30:27.430Z,56.10
2022-10-17T01:33:17.696Z,56.10
2022-10-17T01:35:52.173Z,56.00
2022-10-17T01:38:27.076Z,56.00
2022-10-17T01:41:26.027Z,56.00
2022-10-17T01:43:59.464Z,55.90
2022-10-17T01:46:40.205Z,55.90
2022-10-17T01:49:10.399Z,55.80
2022-10-17T01:51:42.580Z,55.70
2022-10-17T01:54:27.467Z,55.80
2022-10-17T01:56:59.192Z,55.80
2022-10-17T01:59:33.725Z,55.80
2022-10-17T02:02:01.883Z,55.90
2022-10-17T02:04:29.462Z,55.90
2022-10-17T02:06:56.346Z,56.00
2022-10-17T02:09:27.465Z,56.10
2022-10-17T02:12:15.508Z,56.00
2022-10-17T02:15:00.028Z,56.10
2022-10-17T02:18:06.578Z,56.10
2022-10-17T02:20:50.822Z,56.20
2022-10-17T02:23:58.697Z,56.20
2022-10-17T02:26:40.997Z,56.20
2022-10-17T02:29:18.669Z,56.20
2022-10-17T02:31:54.256Z,56.10
2022-10-17T02:34:29.828Z,56.10
2022-10-17T02:37:00.389Z,56.80
2022-10-17T02:39:30.321Z,56.10
2022-10-17T02:42:00.213Z,56.10
2022-10-17T02:44:28.504Z,56.00
2022-10-17T02:47:03.518Z,55.90
2022-10-17T02:49:37.230Z,55.90
2022-10-17T02:52:17.406Z,55.90
2022-10-17T02:54:51.350Z,55.80
2022-10-17T02:57:38.202Z,55.80
2022-10-17T03:00:08.825Z,55.80
2022-10-17T03:02:43.866Z,55.70
2022-10-17T03:05:14.305Z,55.70
2022-10-17T03:07:41.149Z,55.70
2022-10-17T03:10:08.075Z,55.60
2022-10-17T03:12:34.835Z,55.70
2022-10-17T03:15:01.883Z,55.80
2022-10-17T03:17:29.514Z,55.80
2022-10-17T03:19:56.293Z,55.90
2022-10-17T03:22:23.210Z,56.00
2022-10-17T03:24:50.426Z,56.10
2022-10-17T03:27:17.430Z,56.10
2022-10-17T03:29:44.200Z,56.20
2022-10-17T03:32:10.994Z,56.30
2022-10-17T03:34:37.737Z,56.40
2022-10-17T03:37:05.198Z,56.40
2022-10-17T03:39:32.012Z,56.40
2022-10-17T03:41:58.784Z,56.40
2022-10-17T03:44:25.747Z,56.40
2022-10-17T03:46:52.484Z,56.40
2022-10-17T03:49:19.251Z,56.40
2022-10-17T03:51:46.016Z,56.40
2022-10-17T03:54:13.078Z,56.40
2022-10-17T03:56:39.866Z,57.10
2022-10-17T03:59:06.694Z,56.30
2022-10-17T04:01:33.528Z,56.30
2022-10-17T04:04:00.401Z,56.20
2022-10-17T04:06:27.167Z,56.20
2022-10-17T04:08:53.976Z,56.20
2022-10-17T04:11:21.577Z,56.20
2022-10-17T04:13:52.705Z,56.20
2022-10-17T04:16:19.549Z,56.20
2022-10-17T04:18:46.812Z,56.20
2022-10-17T04:21:13.692Z,56.20
2022-10-17T04:23:40.495Z,56.20
2022-10-17T04:26:07.299Z,56.80
2022-10-17T04:28:34.317Z,56.20
2022-10-17T04:31:11.617Z,56.10
2022-10-17T04:33:38.780Z,56.20
2022-10-17T04:36:08.388Z,56.00
2022-10-17T04:38:35.151Z,55.90
2022-10-17T04:41:04.244Z,55.90
2022-10-17T04:43:32.590Z,55.90
2022-10-17T04:46:00.597Z,55.90
2022-10-17T04:48:28.989Z,55.80
2022-10-17T04:50:56.413Z,55.90
2022-10-17T04:53:23.652Z,55.90
2022-10-17T04:55:51.043Z,56.00
2022-10-17T04:58:17.919Z,56.00
2022-10-17T05:00:44.911Z,56.00
2022-10-17T05:03:11.879Z,56.00
2022-10-17T05:05:39.670Z,56.00
2022-10-17T05:08:08.053Z,56.10
2022-10-17T05:10:42.871Z,56.10
2022-10-17T05:13:10.817Z,56.10
2022-10-17T05:15:38.050Z,56.10
2022-10-17T05:18:06.236Z,56.10
2022-10-17T05:20:33.431Z,56.10
2022-10-17T05:23:00.765Z,56.00
2022-10-17T05:25:27.655Z,56.00
2022-10-17T05:27:54.681Z,56.00
2022-10-17T05:30:21.521Z,56.60
2022-10-17T05:32:48.340Z,55.90
2022-10-17T05:35:15.227Z,55.90
2022-10-17T05:37:42.008Z,55.90
2022-10-17T05:40:09.284Z,55.80
2022-10-17T05:42:36.144Z,55.80
2022-10-17T05:45:03.644Z,55.80
2022-10-17T05:47:31.450Z,55.70
2022-10-17T05:49:58.591Z,55.60
2022-10-17T05:52:25.456Z,55.60
2022-10-17T05:54:52.246Z,55.70
2022-10-17T05:57:19.076Z,55.70
2022-10-17T05:59:45.827Z,55.70
2022-10-17T06:02:13.115Z,55.70
2022-10-17T06:04:45.333Z,55.70
2022-10-17T06:07:15.708Z,55.60
2022-10-17T06:09:42.946Z,55.60
2022-10-17T06:12:09.792Z,55.60
2022-10-17T06:14:36.560Z,55.60
2022-10-17T06:17:03.548Z,55.60
2022-10-17T06:19:30.383Z,55.60
2022-10-17T06:21:57.137Z,55.60
2022-10-17T06:24:23.942Z,55.60
2022-10-17T06:26:51.174Z,55.60
2022-10-17T06:29:18.051Z,55.70
2022-10-17T06:31:44.836Z,55.60
2022-10-17T06:34:11.650Z,55.60
2022-10-17T06:36:38.428Z,55.60
2022-10-17T06:39:05.237Z,55.60
2022-10-17T06:41:32.032Z,55.60
2022-10-17T06:43:58.808Z,55.60
2022-10-17T06:46:29.813Z,55.60
2022-10-17T06:48:56.728Z,55.60
2022-10-17T06:51:23.537Z,55.60
2022-10-17T06:53:50.284Z,55.70
2022-10-17T06:56:17.039Z,55.70
2022-10-17T06:58:44.122Z,55.70
2022-10-17T07:01:12.503Z,56.30
2022-10-17T07:03:40.825Z,55.60
2022-10-17T07:06:08.125Z,55.60
2022-10-17T07:08:34.850Z,55.70
2022-10-17T07:11:10.725Z,55.60
2022-10-17T07:13:39.258Z,55.70
2022-10-17T07:16:06.909Z,55.70
2022-10-17T07:18:34.143Z,55.80
2022-10-17T07:21:01.409Z,55.80
2022-10-17T07:23:28.241Z,55.80
2022-10-17T07:26:03.410Z,55.80
2022-10-17T07:28:30.263Z,55.80
2022-10-17T07:31:02.405Z,55.90
2022-10-17T07:33:29.329Z,55.90
2022-10-17T07:35:59.135Z,55.90
2022-10-17T07:38:26.516Z,55.90
2022-10-17T07:40:57.325Z,55.90
2022-10-17T07:43:25.727Z,55.90
2022-10-17T07:45:53.272Z,55.90
2022-10-17T07:48:22.104Z,55.90
2022-10-17T07:50:48.904Z,55.90
2022-10-17T07:53:15.897Z,56.00
2022-10-17T07:55:43.213Z,56.00
2022-10-17T07:58:10.088Z,56.30
2022-10-17T08:00:37.632Z,56.10
2022-10-17T08:03:05.179Z,56.20
2022-10-17T08:05:33.144Z,56.30
2022-10-17T08:07:59.982Z,56.30
2022-10-17T08:10:28.299Z,56.40
2022-10-17T08:12:56.468Z,56.50
2022-10-17T08:15:27.954Z,56.60
2022-10-17T08:17:58.665Z,56.60
2022-10-17T08:20:25.485Z,56.70
2022-10-17T08:22:56.695Z,56.70
2022-10-17T08:25:23.832Z,56.60
2022-10-17T08:27:50.670Z,56.70
2022-10-17T08:30:17.859Z,56.80
2022-10-17T08:32:44.684Z,56.80
2022-10-17T08:35:11.766Z,56.80
2022-10-17T08:37:38.545Z,56.90
2022-10-17T08:40:06.116Z,57.00
2022-10-17T08:43:00.373Z,57.10
2022-10-17T08:45:29.942Z,57.20
2022-10-17T08:48:04.373Z,58.00
2022-10-17T08:50:40.364Z,57.40
2022-10-17T08:53:31.508Z,57.40
2022-10-17T08:56:02.945Z,58.10
2022-10-17T08:58:33.503Z,57.30
2022-10-17T09:01:33.431Z,57.10
2022-10-17T09:04:02.914Z,56.80
2022-10-17T09:06:52.042Z,56.70
2022-10-17T09:09:18.738Z,56.40
2022-10-17T09:12:16.529Z,56.30
2022-10-17T09:15:02.042Z,56.00
2022-10-17T09:17:32.974Z,55.80
2022-10-17T09:20:02.272Z,55.70
2022-10-17T09:22:37.495Z,55.40
2022-10-17T09:25:09.916Z,55.50
2022-10-17T09:27:47.987Z,55.30
2022-10-17T09:30:43.700Z,55.50
2022-10-17T09:33:23.325Z,55.30
2022-10-17T09:36:02.048Z,55.30
2022-10-17T09:38:39.612Z,55.30
2022-10-17T09:41:39.346Z,56.00
2022-10-17T09:44:12.537Z,55.40
2022-10-17T09:46:39.518Z,55.50
2022-10-17T09:49:11.169Z,55.50
2022-10-17T09:51:40.662Z,55.60
2022-10-17T09:54:50.092Z,55.60
2022-10-17T09:57:18.840Z,55.60
2022-10-17T09:59:58.153Z,55.70
2022-10-17T10:02:28.045Z,55.60
2022-10-17T10:05:16.400Z,55.70
2022-10-17T10:07:46.119Z,55.70
2022-10-17T10:10:27.743Z,55.70
2022-10-17T10:13:15.108Z,55.60
2022-10-17T10:15:44.660Z,55.60
2022-10-17T10:18:26.484Z,55.60
2022-10-17T10:21:05.816Z,55.70
2022-10-17T10:23:33.094Z,55.70
2022-10-17T10:26:05.705Z,55.60
2022-10-17T10:28:36.135Z,55.60
2022-10-17T10:31:08.532Z,55.60
2022-10-17T10:33:41.785Z,55.60
2022-10-17T10:36:10.171Z,55.60
2022-10-17T10:38:40.216Z,55.50
2022-10-17T10:41:09.849Z,55.40
2022-10-17T10:43:46.312Z,55.30
2022-10-17T10:46:26.649Z,55.20
2022-10-17T10:48:58.378Z,55.10
2022-10-17T10:51:31.040Z,55.10
2022-10-17T10:54:15.945Z,55.10
2022-10-17T10:56:49.847Z,55.00
2022-10-17T10:59:40.781Z,55.00
2022-10-17T11:02:22.431Z,54.90
2022-10-17T11:04:54.936Z,54.80
2022-10-17T11:07:36.589Z,54.80
2022-10-17T11:10:45.947Z,54.60
2022-10-17T11:13:39.080Z,54.70
2022-10-17T11:16:44.057Z,54.70
2022-10-17T11:19:35.188Z,54.60
2022-10-17T11:22:07.725Z,54.90
2022-10-17T11:24:42.956Z,55.00
2022-10-17T11:27:09.844Z,54.90
2022-10-17T11:29:40.960Z,54.90
2022-10-17T11:32:22.920Z,54.90
2022-10-17T11:34:54.668Z,54.90
2022-10-17T11:37:31.761Z,54.80
2022-10-17T11:40:19.163Z,54.80
2022-10-17T11:42:59.349Z,54.60
2022-10-17T11:45:33.453Z,54.50
2022-10-17T11:48:26.505Z,54.40
2022-10-17T11:54:13.876Z,54.10
2022-10-17T11:57:18.090Z,54.10
2022-10-17T11:59:59.414Z,53.90
2022-10-17T12:02:32.565Z,53.90
2022-10-17T12:05:31.544Z,53.90
2022-10-17T12:08:10.720Z,53.70
2022-10-17T12:10:47.200Z,53.60
2022-10-17T12:13:30.264Z,53.50
2022-10-17T12:16:17.998Z,53.40
2022-10-17T12:18:51.471Z,53.30
2022-10-17T12:21:18.352Z,53.30
2022-10-17T12:23:55.740Z,53.30
2022-10-17T12:26:30.062Z,53.20
2022-10-17T12:28:57.602Z,53.10
2022-10-17T12:31:32.674Z,53.00
2022-10-17T12:34:05.184Z,52.90
2022-10-17T12:36:31.982Z,52.80
2022-10-17T12:39:01.805Z,52.80
2022-10-17T12:41:41.358Z,52.70
2022-10-17T12:44:14.698Z,52.70
2022-10-17T12:46:55.614Z,52.70
2022-10-17T12:49:42.275Z,52.70
2022-10-17T12:52:35.145Z,53.30
2022-10-17T12:55:14.079Z,52.50
2022-10-17T12:57:48.865Z,52.50
2022-10-17T13:00:37.857Z,52.50
2022-10-17T13:03:10.327Z,52.90
2022-10-17T13:05:40.204Z,52.70
2022-10-17T13:08:13.784Z,52.80
2022-10-17T13:10:43.173Z,52.90
2022-10-17T13:13:21.188Z,52.80
2022-10-17T13:15:54.444Z,52.90
2022-10-17T13:18:25.249Z,53.00
2022-10-17T13:21:15.934Z,53.10
2022-10-17T13:23:43.006Z,53.20
2022-10-17T13:26:20.100Z,53.30
2022-10-17T13:29:04.566Z,53.20
2022-10-17T13:31:36.446Z,53.30
2022-10-17T13:34:06.923Z,53.20
2022-10-17T13:36:35.346Z,53.30
2022-10-17T13:39:12.358Z,53.30
2022-10-17T13:41:42.062Z,53.30
2022-10-17T13:44:19.063Z,53.20
2022-10-17T13:46:46.668Z,53.20
2022-10-17T13:49:40.126Z,53.10
2022-10-17T13:52:17.309Z,53.10
2022-10-17T13:54:46.571Z,53.10
2022-10-17T13:57:27.564Z,53.00
2022-10-17T14:00:00.019Z,53.00
2022-10-17T14:02:29.373Z,52.90
2022-10-17T14:05:19.218Z,52.90
2022-10-17T14:08:12.694Z,52.80
2022-10-17T14:10:43.388Z,52.80
2022-10-17T14:13:25.948Z,52.70
2022-10-17T14:15:59.187Z,52.70
2022-10-17T14:18:36.204Z,52.60
2022-10-17T14:21:37.207Z,52.60
2022-10-17T14:24:11.546Z,52.60
2022-10-17T14:26:47.822Z,52.50
2022-10-17T14:29:25.342Z,52.50
2022-10-17T14:32:10.850Z,52.50
2022-10-17T14:34:40.577Z,52.50
2022-10-17T14:37:19.446Z,52.40
2022-10-17T14:39:50.405Z,52.50
2022-10-17T14:42:22.631Z,52.50
2022-10-17T14:44:50.714Z,52.50
2022-10-17T14:47:43.364Z,52.50
2022-10-17T14:50:10.751Z,52.60
2022-10-17T14:52:38.913Z,52.60
2022-10-17T14:55:25.535Z,52.60
2022-10-17T14:57:52.295Z,52.60
2022-10-17T15:00:22.545Z,52.70
2022-10-17T15:02:51.075Z,52.70
2022-10-17T15:05:19.406Z,52.70
2022-10-17T15:07:46.464Z,52.70
2022-10-17T15:10:25.554Z,52.80
2022-10-17T15:12:59.369Z,52.90
2022-10-17T15:15:32.277Z,52.90
2022-10-17T15:17:59.483Z,53.00
2022-10-17T15:20:29.386Z,53.00
2022-10-17T15:22:58.522Z,53.40
2022-10-17T15:25:26.819Z,53.10
2022-10-17T15:27:54.416Z,53.90
2022-10-17T15:30:24.960Z,53.20
2022-10-17T15:32:53.064Z,53.30
2022-10-17T15:35:20.817Z,53.30
2022-10-17T15:37:48.217Z,53.40
2022-10-17T15:40:18.286Z,53.40
2022-10-17T15:42:45.101Z,54.20
2022-10-17T15:45:15.103Z,53.50
2022-10-17T15:47:43.562Z,53.50
2022-10-17T15:50:17.409Z,53.60
2022-10-17T15:52:46.992Z,53.60
2022-10-17T15:55:14.009Z,53.60
2022-10-17T15:57:43.571Z,53.70
2022-10-17T16:00:20.709Z,53.80
2022-10-17T16:02:49.407Z,53.90
2022-10-17T16:05:29.112Z,54.00
2022-10-17T16:07:57.423Z,54.10
2022-10-17T16:10:28.167Z,54.10
2022-10-17T16:12:55.328Z,54.30
2022-10-17T16:15:27.919Z,54.40
2022-10-17T16:17:56.646Z,54.60
2022-10-17T16:20:24.739Z,54.80
2022-10-17T16:22:53.173Z,55.00
2022-10-17T16:25:21.630Z,55.10
2022-10-17T16:27:50.709Z,55.20
2022-10-17T16:30:17.815Z,55.20
2022-10-17T16:32:45.114Z,55.20
2022-10-17T16:35:18.207Z,55.20
2022-10-17T16:37:45.133Z,55.20
2022-10-17T16:40:12.275Z,55.40
2022-10-17T16:42:40.593Z,55.40
2022-10-17T16:45:07.976Z,55.60
2022-10-17T16:47:34.881Z,55.60
2022-10-17T16:50:01.766Z,55.70
2022-10-17T16:52:28.991Z,55.70
2022-10-17T16:54:56.070Z,55.80
2022-10-17T16:57:23.034Z,55.90
2022-10-17T16:59:50.333Z,55.90
2022-10-17T17:02:21.189Z,55.90
2022-10-17T17:04:48.343Z,56.00
2022-10-17T17:07:15.167Z,55.90
2022-10-17T17:09:41.907Z,56.00
2022-10-17T17:12:08.762Z,56.10
2022-10-17T17:14:35.665Z,56.20
2022-10-17T17:17:02.448Z,56.30
2022-10-17T17:19:29.468Z,56.30
2022-10-17T17:21:56.300Z,56.40
2022-10-17T17:24:23.094Z,56.40
2022-10-17T17:26:55.164Z,56.40
2022-10-17T17:29:22.996Z,56.50
2022-10-17T17:31:50.367Z,56.40
2022-10-17T17:34:18.337Z,56.50
2022-10-17T17:36:45.681Z,56.50
2022-10-17T17:39:14.031Z,56.50
2022-10-17T17:41:42.067Z,56.60
2022-10-17T17:44:14.042Z,56.60
2022-10-17T17:46:43.595Z,56.80
2022-10-17T17:49:11.623Z,57.00
2022-10-17T17:51:38.999Z,57.10
2022-10-17T17:54:05.820Z,57.20
2022-10-17T17:56:36.873Z,57.20
2022-10-17T17:59:04.379Z,57.20
2022-10-17T18:01:37.155Z,57.30
2022-10-17T18:04:06.161Z,57.30
2022-10-17T18:06:33.075Z,57.20
2022-10-17T18:08:59.945Z,57.20
2022-10-17T18:11:27.692Z,57.10
2022-10-17T18:13:56.929Z,57.10
2022-10-17T18:16:24.768Z,57.00
2022-10-17T18:18:51.610Z,56.90
2022-10-17T18:21:18.426Z,57.50
2022-10-17T18:23:46.742Z,56.80
2022-10-17T18:26:14.491Z,56.70
2022-10-17T18:31:25.028Z,56.60
2022-10-17T18:33:53.317Z,56.50
2022-10-17T18:36:21.208Z,56.50
2022-10-17T18:38:48.676Z,56.40
2022-10-17T18:41:18.026Z,56.40
2022-10-17T18:43:46.388Z,56.40
2022-10-17T18:46:40.130Z,56.50
2022-10-17T18:49:09.183Z,56.50
2022-10-17T18:51:36.784Z,56.60
2022-10-17T18:54:04.095Z,56.70
2022-10-17T18:56:31.818Z,56.80
2022-10-17T18:58:59.483Z,56.80
2022-10-17T19:01:27.606Z,56.90
2022-10-17T19:03:56.920Z,56.90
2022-10-17T19:06:27.495Z,56.80
2022-10-17T19:08:54.590Z,56.70
2022-10-17T19:11:24.062Z,56.80
2022-10-17T19:13:51.617Z,56.70
2022-10-17T19:16:30.355Z,56.70
2022-10-17T19:19:01.156Z,56.60
2022-10-17T19:21:28.241Z,56.50
2022-10-17T19:24:01.482Z,56.40
2022-10-17T19:26:31.079Z,56.30
2022-10-17T19:29:00.350Z,56.30
2022-10-17T19:31:29.420Z,56.20
2022-10-17T19:33:56.964Z,56.10
2022-10-17T19:36:33.187Z,56.10
2022-10-17T19:39:03.051Z,56.00
2022-10-17T19:41:30.107Z,55.80
2022-10-17T19:43:56.889Z,55.80
2022-10-17T19:46:26.501Z,55.70
2022-10-17T19:48:53.558Z,55.70
2022-10-17T19:51:26.237Z,55.60
2022-10-17T19:53:54.789Z,55.50
2022-10-17T19:56:22.999Z,55.40
2022-10-17T19:58:50.492Z,55.30
2022-10-17T20:01:20.198Z,55.20
2022-10-17T20:03:47.382Z,55.20
2022-10-17T20:06:14.486Z,55.10
2022-10-17T20:08:42.084Z,55.00
2022-10-17T20:11:20.418Z,54.90
2022-10-17T20:13:48.325Z,54.80
2022-10-17T20:16:21.288Z,54.80
2022-10-17T20:18:49.931Z,54.80
2022-10-17T20:21:20.533Z,54.80
2022-10-17T20:23:47.936Z,54.90
2022-10-17T20:29:11.007Z,54.90
2022-10-17T20:31:39.772Z,55.00
2022-10-17T20:34:06.778Z,55.00
2022-10-17T20:36:36.889Z,54.90
2022-10-17T20:39:04.623Z,54.90
2022-10-17T20:41:31.450Z,54.90
2022-10-17T20:43:58.187Z,54.80
2022-10-17T20:46:45.309Z,54.80
2022-10-17T20:49:15.989Z,54.70
2022-10-17T20:51:43.172Z,54.60
2022-10-17T20:54:10.544Z,54.50
2022-10-17T20:56:38.183Z,54.50
2022-10-17T20:59:08.202Z,54.50
2022-10-17T21:01:36.045Z,54.50
2022-10-17T21:04:27.013Z,54.40
2022-10-17T21:06:53.941Z,54.20
2022-10-17T21:09:21.532Z,54.20
2022-10-17T21:11:51.235Z,54.10
2022-10-17T21:14:18.604Z,54.00
2022-10-17T21:16:45.501Z,53.90
2022-10-17T21:19:13.458Z,53.90
2022-10-17T21:21:42.289Z,53.90
2022-10-17T21:24:13.992Z,53.80
2022-10-17T21:26:42.813Z,53.70
2022-10-17T21:29:11.724Z,53.70
2022-10-17T21:31:40.518Z,53.70
2022-10-17T21:34:09.703Z,53.60
2022-10-17T21:36:36.799Z,53.50
2022-10-17T21:39:04.085Z,53.40
2022-10-17T21:41:31.403Z,53.40
2022-10-17T21:44:00.538Z,53.40
2022-10-17T21:46:28.127Z,53.20
2022-10-17T21:48:55.202Z,53.20
2022-10-17T21:51:23.951Z,53.10
2022-10-17T21:53:52.304Z,53.10
2022-10-17T21:56:21.939Z,53.10
2022-10-17T21:58:50.006Z,53.10
2022-10-17T22:01:22.961Z,53.10
2022-10-17T22:03:52.097Z,53.10
2022-10-17T22:09:20.599Z,53.90
2022-10-17T22:11:49.978Z,53.20
2022-10-17T22:14:18.791Z,53.10
2022-10-17T22:16:46.846Z,53.10
2022-10-17T22:19:15.989Z,53.10
2022-10-17T22:21:42.918Z,53.10
2022-10-17T22:24:13.041Z,53.00
2022-10-17T22:26:40.590Z,53.00
2022-10-17T22:29:08.519Z,53.00
2022-10-17T22:31:37.010Z,52.90
2022-10-17T22:34:05.603Z,52.90
2022-10-17T22:36:33.473Z,52.90
2022-10-17T22:39:00.282Z,52.90
2022-10-17T22:41:27.075Z,52.80
2022-10-17T22:43:53.875Z,52.80
2022-10-17T22:46:20.665Z,52.80
2022-10-17T22:48:47.488Z,52.80
2022-10-17T22:51:14.485Z,53.50
2022-10-17T22:53:41.323Z,52.80
2022-10-17T22:56:11.929Z,52.90
2022-10-17T22:58:38.756Z,52.90
2022-10-17T23:01:09.919Z,53.00
2022-10-17T23:03:36.861Z,52.90
2022-10-17T23:06:04.218Z,52.90
2022-10-17T23:08:31.322Z,53.00
2022-10-17T23:10:58.230Z,53.00
2022-10-17T23:13:25.153Z,52.90
2022-10-17T23:15:53.520Z,52.90
2022-10-17T23:18:21.527Z,52.90
2022-10-17T23:20:49.022Z,52.90
2022-10-17T23:23:16.209Z,52.80
2022-10-17T23:25:43.506Z,52.80
2022-10-17T23:28:10.896Z,52.70
2022-10-17T23:30:39.058Z,52.70
2022-10-17T23:33:06.217Z,52.60
2022-10-17T23:35:33.554Z,52.60
2022-10-17T23:38:00.473Z,52.50
2022-10-17T23:40:28.081Z,52.50
2022-10-17T23:42:54.869Z,52.50
2022-10-17T23:45:22.224Z,52.40
2022-10-17T23:47:49.048Z,52.40
2022-10-17T23:50:16.408Z,52.40
2022-10-17T23:52:43.481Z,52.40
2022-10-17T23:55:10.593Z,53.10
2022-10-17T23:57:37.436Z,52.30
